Lansing, Kansas
Current Conditions -  °F | °C
As of 4:53 PM on Thursday 20 Nov 2014 (Local Time) from KMCI Reporting Station
Few Clouds Few Clouds  
Wind Chill: -2°   Ceiling: Unl
Heat Index:   Visibility: 10mi
Dew Point: -8°   Wind: 7mph
Humidity: 52%   Direction: 40°NE
Pressure: 30.2"   Gusts: NA
Location:  39.24°N, 94.9°W
Report Text: KMCI 202253Z 04006KT 10SM FEW250 01/M08 A3020 RMK AO2 SLP237 T00111078
Loading
Personal Weather Stations






























Interactive Weather Map New forecast layout! Learn more

10-Day Weather Forecast

Advertisements
Track Severe Weather on mobile